sensor_id;sensor_type;location;lat;lon;timestamp;pressure;altitude;pressure_sealevel;temperature;humidity
51083;BME280;37131;42.694;23.350;2023-05-01T00:01:37;95437.25;;;10.54;95.40
51083;BME280;37131;42.694;23.350;2023-05-01T00:04:03;95435.00;;;10.58;96.09
51083;BME280;37131;42.694;23.350;2023-05-01T00:06:28;95445.13;;;10.66;94.69
51083;BME280;37131;42.694;23.350;2023-05-01T00:08:53;95444.53;;;10.64;94.13
51083;BME280;37131;42.694;23.350;2023-05-01T00:11:19;95442.31;;;10.67;93.32
51083;BME280;37131;42.694;23.350;2023-05-01T00:13:44;95446.72;;;10.67;92.63
51083;BME280;37131;42.694;23.350;2023-05-01T00:16:10;95440.84;;;10.71;91.94
51083;BME280;37131;42.694;23.350;2023-05-01T00:18:36;95454.16;;;10.26;94.30
51083;BME280;37131;42.694;23.350;2023-05-01T00:21:02;95449.97;;;10.25;96.26
51083;BME280;37131;42.694;23.350;2023-05-01T00:23:27;95447.09;;;10.08;98.98
51083;BME280;37131;42.694;23.350;2023-05-01T00:25:52;95449.59;;;10.03;100.00
51083;BME280;37131;42.694;23.350;2023-05-01T00:28:17;95461.34;;;9.87;100.00
51083;BME280;37131;42.694;23.350;2023-05-01T00:30:43;95443.63;;;9.96;100.00
51083;BME280;37131;42.694;23.350;2023-05-01T00:33:09;95453.34;;;10.07;100.00
51083;BME280;37131;42.694;23.350;2023-05-01T00:35:34;95458.81;;;9.99;100.00
51083;BME280;37131;42.694;23.350;2023-05-01T00:38:00;95464.81;;;9.81;100.00
51083;BME280;37131;42.694;23.350;2023-05-01T00:40:25;95473.81;;;9.53;100.00
51083;BME280;37131;42.694;23.350;2023-05-01T00:42:50;95469.78;;;9.57;100.00
51083;BME280;37131;42.694;23.350;2023-05-01T00:45:16;95475.84;;;9.51;100.00
51083;BME280;37131;42.694;23.350;2023-05-01T00:47:42;95472.41;;;9.57;100.00
51083;BME280;37131;42.694;23.350;2023-05-01T00:50:07;95471.53;;;9.63;100.00
51083;BME280;37131;42.694;23.350;2023-05-01T00:52:33;95474.75;;;9.65;100.00
51083;BME280;37131;42.694;23.350;2023-05-01T00:54:58;95475.44;;;9.54;100.00
51083;BME280;37131;42.694;23.350;2023-05-01T00:57:23;95479.19;;;9.33;100.00
51083;BME280;37131;42.694;23.350;2023-05-01T00:59:48;95478.38;;;9.33;100.00
51083;BME280;37131;42.694;23.350;2023-05-01T01:02:14;95479.06;;;9.21;100.00
51083;BME280;37131;42.694;23.350;2023-05-01T01:04:40;95484.63;;;9.25;100.00
51083;BME280;37131;42.694;23.350;2023-05-01T01:07:22;95477.25;;;9.22;100.00
51083;BME280;37131;42.694;23.350;2023-05-01T01:12:40;95484.00;;;8.84;100.00
51083;BME280;37131;42.694;23.350;2023-05-01T01:20:18;95493.41;;;8.85;100.00
51083;BME280;37131;42.694;23.350;2023-05-01T01:22:46;95499.59;;;8.98;100.00
51083;BME280;37131;42.694;23.350;2023-05-01T01:35:45;95506.47;;;8.72;100.00
51083;BME280;37131;42.694;23.350;2023-05-01T01:38:15;95495.66;;;8.75;100.00
51083;BME280;37131;42.694;23.350;2023-05-01T01:41:03;95502.47;;;8.76;100.00
51083;BME280;37131;42.694;23.350;2023-05-01T01:43:32;95498.66;;;8.78;100.00
51083;BME280;37131;42.694;23.350;2023-05-01T01:46:01;95494.25;;;8.79;100.00
51083;BME280;37131;42.694;23.350;2023-05-01T01:48:32;95502.66;;;8.74;100.00
51083;BME280;37131;42.694;23.350;2023-05-01T01:50:58;95489.69;;;8.74;100.00
51083;BME280;37131;42.694;23.350;2023-05-01T01:53:25;95489.88;;;8.73;100.00
51083;BME280;37131;42.694;23.350;2023-05-01T01:55:52;95488.69;;;8.75;100.00
51083;BME280;37131;42.694;23.350;2023-05-01T01:58:18;95489.47;;;8.69;100.00
51083;BME280;37131;42.694;23.350;2023-05-01T02:00:45;95478.13;;;8.64;100.00
51083;BME280;37131;42.694;23.350;2023-05-01T02:03:11;95486.88;;;8.76;100.00
51083;BME280;37131;42.694;23.350;2023-05-01T02:05:37;95493.72;;;8.64;100.00
51083;BME280;37131;42.694;23.350;2023-05-01T02:08:04;95492.91;;;8.70;100.00
51083;BME280;37131;42.694;23.350;2023-05-01T02:10:30;95495.44;;;8.83;100.00
51083;BME280;37131;42.694;23.350;2023-05-01T02:12:56;95491.06;;;8.77;100.00
51083;BME280;37131;42.694;23.350;2023-05-01T02:15:23;95498.72;;;8.52;100.00
51083;BME280;37131;42.694;23.350;2023-05-01T02:17:49;95496.34;;;8.50;100.00
51083;BME280;37131;42.694;23.350;2023-05-01T02:20:16;95497.75;;;8.39;100.00
51083;BME280;37131;42.694;23.350;2023-05-01T02:22:42;95492.94;;;8.36;100.00
51083;BME280;37131;42.694;23.350;2023-05-01T02:25:10;95499.78;;;8.24;100.00
51083;BME280;37131;42.694;23.350;2023-05-01T02:27:39;95498.19;;;8.16;100.00
51083;BME280;37131;42.694;23.350;2023-05-01T02:30:06;95492.78;;;8.24;100.00
51083;BME280;37131;42.694;23.350;2023-05-01T02:32:32;95493.53;;;8.38;100.00
51083;BME280;37131;42.694;23.350;2023-05-01T02:34:57;95495.75;;;8.35;100.00
51083;BME280;37131;42.694;23.350;2023-05-01T02:37:23;95501.75;;;8.35;100.00
51083;BME280;37131;42.694;23.350;2023-05-01T02:39:49;95499.16;;;8.22;100.00
51083;BME280;37131;42.694;23.350;2023-05-01T02:42:14;95495.97;;;8.13;100.00
51083;BME280;37131;42.694;23.350;2023-05-01T02:44:41;95493.97;;;8.22;100.00
51083;BME280;37131;42.694;23.350;2023-05-01T02:47:07;95493.19;;;8.15;100.00
51083;BME280;37131;42.694;23.350;2023-05-01T02:49:34;95493.38;;;8.33;100.00
51083;BME280;37131;42.694;23.350;2023-05-01T02:52:00;95495.19;;;8.06;100.00
51083;BME280;37131;42.694;23.350;2023-05-01T02:54:27;95505.81;;;7.98;100.00
51083;BME280;37131;42.694;23.350;2023-05-01T02:56:53;95498.63;;;7.93;100.00
51083;BME280;37131;42.694;23.350;2023-05-01T02:59:19;95506.41;;;7.93;100.00
51083;BME280;37131;42.694;23.350;2023-05-01T03:01:44;95509.63;;;7.88;100.00
51083;BME280;37131;42.694;23.350;2023-05-01T03:04:09;95518.78;;;7.64;100.00
51083;BME280;37131;42.694;23.350;2023-05-01T03:06:34;95515.78;;;7.61;100.00
51083;BME280;37131;42.694;23.350;2023-05-01T03:09:00;95517.19;;;7.70;100.00
51083;BME280;37131;42.694;23.350;2023-05-01T03:11:25;95518.38;;;7.67;100.00
51083;BME280;37131;42.694;23.350;2023-05-01T03:13:51;95511.19;;;7.63;100.00
51083;BME280;37131;42.694;23.350;2023-05-01T03:16:16;95513.78;;;7.63;100.00
51083;BME280;37131;42.694;23.350;2023-05-01T03:18:41;95512.97;;;7.49;100.00
51083;BME280;37131;42.694;23.350;2023-05-01T03:21:06;95516.34;;;7.49;100.00
51083;BME280;37131;42.694;23.350;2023-05-01T03:23:32;95514.78;;;7.55;100.00
51083;BME280;37131;42.694;23.350;2023-05-01T03:25:57;95518.78;;;7.64;100.00
51083;BME280;37131;42.694;23.350;2023-05-01T03:28:23;95527.78;;;7.75;100.00
51083;BME280;37131;42.694;23.350;2023-05-01T03:30:49;95525.56;;;7.52;100.00
51083;BME280;37131;42.694;23.350;2023-05-01T03:33:14;95535.72;;;7.53;100.00
51083;BME280;37131;42.694;23.350;2023-05-01T03:35:40;95528.34;;;7.57;100.00
51083;BME280;37131;42.694;23.350;2023-05-01T03:38:05;95530.97;;;7.64;100.00
51083;BME280;37131;42.694;23.350;2023-05-01T03:40:30;95535.13;;;7.58;100.00
51083;BME280;37131;42.694;23.350;2023-05-01T03:42:55;95538.31;;;7.40;100.00
51083;BME280;37131;42.694;23.350;2023-05-01T03:45:21;95539.88;;;7.34;100.00
51083;BME280;37131;42.694;23.350;2023-05-01T03:47:46;95533.31;;;7.45;100.00
51083;BME280;37131;42.694;23.350;2023-05-01T03:50:11;95544.69;;;7.44;100.00
51083;BME280;37131;42.694;23.350;2023-05-01T03:52:38;95536.31;;;7.42;100.00
51083;BME280;37131;42.694;23.350;2023-05-01T03:55:03;95545.88;;;7.42;100.00
51083;BME280;37131;42.694;23.350;2023-05-01T03:57:29;95546.91;;;7.47;100.00
51083;BME280;37131;42.694;23.350;2023-05-01T03:59:54;95555.28;;;7.43;100.00
51083;BME280;37131;42.694;23.350;2023-05-01T04:02:19;95553.88;;;7.40;100.00
51083;BME280;37131;42.694;23.350;2023-05-01T04:04:45;95545.53;;;7.65;100.00
51083;BME280;37131;42.694;23.350;2023-05-01T04:07:10;95545.34;;;7.73;100.00
51083;BME280;37131;42.694;23.350;2023-05-01T04:09:37;95548.72;;;7.67;100.00
51083;BME280;37131;42.694;23.350;2023-05-01T04:12:02;95554.13;;;7.65;100.00
51083;BME280;37131;42.694;23.350;2023-05-01T04:14:27;95553.53;;;7.63;100.00
51083;BME280;37131;42.694;23.350;2023-05-01T04:16:53;95553.94;;;7.80;100.00
51083;BME280;37131;42.694;23.350;2023-05-01T04:19:18;95547.13;;;7.79;100.00
51083;BME280;37131;42.694;23.350;2023-05-01T04:21:43;95550.94;;;8.10;100.00
51083;BME280;37131;42.694;23.350;2023-05-01T04:24:09;95552.75;;;8.10;100.00
51083;BME280;37131;42.694;23.350;2023-05-01T04:26:34;95560.50;;;8.03;100.00
51083;BME280;37131;42.694;23.350;2023-05-01T04:28:59;95555.31;;;8.36;100.00
51083;BME280;37131;42.694;23.350;2023-05-01T04:31:25;95569.28;;;8.35;100.00
51083;BME280;37131;42.694;23.350;2023-05-01T04:33:50;95566.31;;;8.45;100.00
51083;BME280;37131;42.694;23.350;2023-05-01T04:36:16;95558.69;;;8.64;100.00
51083;BME280;37131;42.694;23.350;2023-05-01T04:38:42;95565.09;;;8.54;100.00
51083;BME280;37131;42.694;23.350;2023-05-01T04:41:08;95562.31;;;8.36;100.00
51083;BME280;37131;42.694;23.350;2023-05-01T04:43:33;95561.72;;;8.47;100.00
51083;BME280;37131;42.694;23.350;2023-05-01T04:45:59;95557.88;;;8.70;100.00
51083;BME280;37131;42.694;23.350;2023-05-01T04:48:24;95566.66;;;8.69;100.00
51083;BME280;37131;42.694;23.350;2023-05-01T04:50:50;95561.66;;;8.74;100.00
51083;BME280;37131;42.694;23.350;2023-05-01T04:53:15;95563.03;;;8.83;100.00
51083;BME280;37131;42.694;23.350;2023-05-01T04:55:40;95569.03;;;8.90;100.00
51083;BME280;37131;42.694;23.350;2023-05-01T04:58:06;95569.19;;;8.95;100.00
51083;BME280;37131;42.694;23.350;2023-05-01T05:00:31;95569.91;;;9.16;100.00
51083;BME280;37131;42.694;23.350;2023-05-01T05:02:56;95577.91;;;9.21;100.00
51083;BME280;37131;42.694;23.350;2023-05-01T05:05:21;95572.22;;;9.38;100.00
51083;BME280;37131;42.694;23.350;2023-05-01T05:07:47;95579.56;;;9.47;100.00
51083;BME280;37131;42.694;23.350;2023-05-01T05:10:12;95584.19;;;9.45;100.00
51083;BME280;37131;42.694;23.350;2023-05-01T05:12:38;95590.16;;;9.53;100.00
51083;BME280;37131;42.694;23.350;2023-05-01T05:15:03;95588.03;;;9.75;100.00
51083;BME280;37131;42.694;23.350;2023-05-01T05:17:28;95592.00;;;9.45;100.00
51083;BME280;37131;42.694;23.350;2023-05-01T05:19:54;95595.59;;;9.51;100.00
51083;BME280;37131;42.694;23.350;2023-05-01T05:22:19;95595.50;;;9.64;100.00
51083;BME280;37131;42.694;23.350;2023-05-01T05:24:44;95592.56;;;9.54;100.00
51083;BME280;37131;42.694;23.350;2023-05-01T05:27:11;95599.72;;;9.65;100.00
51083;BME280;37131;42.694;23.350;2023-05-01T05:29:36;95607.41;;;9.86;100.00
51083;BME280;37131;42.694;23.350;2023-05-01T05:32:01;95602.59;;;10.14;99.50
51083;BME280;37131;42.694;23.350;2023-05-01T05:34:26;95599.50;;;10.24;98.56
51083;BME280;37131;42.694;23.350;2023-05-01T05:36:52;95601.16;;;10.18;97.95
51083;BME280;37131;42.694;23.350;2023-05-01T05:39:17;95597.78;;;10.43;96.40
51083;BME280;37131;42.694;23.350;2023-05-01T05:41:42;95600.34;;;10.50;95.15
51083;BME280;37131;42.694;23.350;2023-05-01T05:44:07;95599.81;;;10.41;97.28
51083;BME280;37131;42.694;23.350;2023-05-01T05:46:33;95602.56;;;10.46;94.81
51083;BME280;37131;42.694;23.350;2023-05-01T05:48:58;95604.94;;;10.48;95.79
51083;BME280;37131;42.694;23.350;2023-05-01T05:51:23;95606.94;;;10.71;95.50
51083;BME280;37131;42.694;23.350;2023-05-01T05:53:48;95598.84;;;10.98;93.41
51083;BME280;37131;42.694;23.350;2023-05-01T05:56:14;95602.75;;;11.07;93.05
51083;BME280;37131;42.694;23.350;2023-05-01T05:58:39;95610.94;;;11.29;92.67
51083;BME280;37131;42.694;23.350;2023-05-01T06:01:04;95605.56;;;11.43;89.71
51083;BME280;37131;42.694;23.350;2023-05-01T06:03:31;95608.09;;;11.49;88.95
51083;BME280;37131;42.694;23.350;2023-05-01T06:05:56;95613.97;;;11.45;87.84
51083;BME280;37131;42.694;23.350;2023-05-01T06:08:21;95620.81;;;11.46;87.81
51083;BME280;37131;42.694;23.350;2023-05-01T06:10:47;95620.53;;;11.66;86.54
51083;BME280;37131;42.694;23.350;2023-05-01T06:13:12;95618.19;;;11.76;86.04
51083;BME280;37131;42.694;23.350;2023-05-01T06:15:38;95620.28;;;11.86;85.39
51083;BME280;37131;42.694;23.350;2023-05-01T06:18:03;95620.78;;;11.76;86.98
51083;BME280;37131;42.694;23.350;2023-05-01T06:20:29;95616.41;;;11.88;86.21
51083;BME280;37131;42.694;23.350;2023-05-01T06:22:55;95618.31;;;12.11;85.79
51083;BME280;37131;42.694;23.350;2023-05-01T06:25:20;95614.94;;;12.35;84.66
51083;BME280;37131;42.694;23.350;2023-05-01T06:27:47;95614.16;;;12.34;82.22
51083;BME280;37131;42.694;23.350;2023-05-01T06:30:12;95616.78;;;12.58;81.17
51083;BME280;37131;42.694;23.350;2023-05-01T06:32:37;95615.53;;;12.72;82.16
51083;BME280;37131;42.694;23.350;2023-05-01T06:35:02;95621.09;;;12.88;79.92
51083;BME280;37131;42.694;23.350;2023-05-01T06:37:28;95618.13;;;12.72;79.62
51083;BME280;37131;42.694;23.350;2023-05-01T06:39:54;95622.03;;;12.58;79.28
51083;BME280;37131;42.694;23.350;2023-05-01T06:42:19;95616.44;;;12.78;78.04
51083;BME280;37131;42.694;23.350;2023-05-01T06:44:45;95614.94;;;12.94;78.05
51083;BME280;37131;42.694;23.350;2023-05-01T06:47:10;95617.00;;;13.04;78.67
51083;BME280;37131;42.694;23.350;2023-05-01T06:49:36;95615.81;;;13.23;78.72
51083;BME280;37131;42.694;23.350;2023-05-01T06:52:01;95619.31;;;13.53;77.88
51083;BME280;37131;42.694;23.350;2023-05-01T06:54:26;95614.19;;;13.46;77.00
51083;BME280;37131;42.694;23.350;2023-05-01T06:56:52;95621.06;;;13.35;76.29
51083;BME280;37131;42.694;23.350;2023-05-01T06:59:17;95615.50;;;13.60;75.43
51083;BME280;37131;42.694;23.350;2023-05-01T07:01:42;95614.97;;;13.58;74.53
51083;BME280;37131;42.694;23.350;2023-05-01T07:04:08;95618.25;;;13.54;73.99
51083;BME280;37131;42.694;23.350;2023-05-01T07:06:33;95617.56;;;13.87;73.46
51083;BME280;37131;42.694;23.350;2023-05-01T07:08:59;95625.84;;;13.96;72.72
51083;BME280;37131;42.694;23.350;2023-05-01T07:11:24;95620.47;;;14.19;72.14
51083;BME280;37131;42.694;23.350;2023-05-01T07:13:50;95618.81;;;13.84;73.31
51083;BME280;37131;42.694;23.350;2023-05-01T07:16:16;95622.91;;;14.09;73.73
51083;BME280;37131;42.694;23.350;2023-05-01T07:18:41;95624.06;;;13.56;75.62
51083;BME280;37131;42.694;23.350;2023-05-01T07:21:06;95625.56;;;13.80;75.73
51083;BME280;37131;42.694;23.350;2023-05-01T07:23:34;95624.06;;;13.84;75.59
51083;BME280;37131;42.694;23.350;2023-05-01T07:25:59;95632.69;;;14.14;74.29
51083;BME280;37131;42.694;23.350;2023-05-01T07:28:24;95628.13;;;14.38;73.63
51083;BME280;37131;42.694;23.350;2023-05-01T07:30:50;95631.13;;;14.30;71.75
51083;BME280;37131;42.694;23.350;2023-05-01T07:33:15;95631.69;;;14.49;72.67
51083;BME280;37131;42.694;23.350;2023-05-01T07:35:40;95633.53;;;14.65;71.05
51083;BME280;37131;42.694;23.350;2023-05-01T07:38:07;95619.59;;;14.82;69.95
51083;BME280;37131;42.694;23.350;2023-05-01T07:40:32;95624.75;;;14.94;70.21
51083;BME280;37131;42.694;23.350;2023-05-01T07:42:58;95628.31;;;15.04;67.91
51083;BME280;37131;42.694;23.350;2023-05-01T07:45:24;95623.19;;;15.15;68.32
51083;BME280;37131;42.694;23.350;2023-05-01T07:47:49;95631.75;;;14.88;66.84
51083;BME280;37131;42.694;23.350;2023-05-01T07:50:15;95617.94;;;15.37;66.86
51083;BME280;37131;42.694;23.350;2023-05-01T07:52:41;95614.47;;;15.53;65.84
51083;BME280;37131;42.694;23.350;2023-05-01T07:55:06;95618.72;;;15.82;65.96
51083;BME280;37131;42.694;23.350;2023-05-01T07:57:33;95607.81;;;15.95;65.24
51083;BME280;37131;42.694;23.350;2023-05-01T07:59:59;95611.88;;;16.08;64.30
51083;BME280;37131;42.694;23.350;2023-05-01T08:02:24;95620.59;;;15.64;62.51
51083;BME280;37131;42.694;23.350;2023-05-01T08:04:49;95612.91;;;16.07;62.66
51083;BME280;37131;42.694;23.350;2023-05-01T08:07:15;95615.66;;;15.46;65.47
51083;BME280;37131;42.694;23.350;2023-05-01T08:09:40;95625.13;;;15.24;66.65
51083;BME280;37131;42.694;23.350;2023-05-01T08:12:06;95619.63;;;15.70;66.33
51083;BME280;37131;42.694;23.350;2023-05-01T08:14:31;95615.78;;;15.34;65.29
51083;BME280;37131;42.694;23.350;2023-05-01T08:16:57;95613.22;;;15.39;65.44
51083;BME280;37131;42.694;23.350;2023-05-01T08:19:22;95613.47;;;15.59;65.44
51083;BME280;37131;42.694;23.350;2023-05-01T08:21:47;95612.59;;;15.76;64.35
51083;BME280;37131;42.694;23.350;2023-05-01T08:24:13;95613.59;;;15.97;62.83
51083;BME280;37131;42.694;23.350;2023-05-01T08:26:38;95617.72;;;16.15;62.58
51083;BME280;37131;42.694;23.350;2023-05-01T08:29:03;95611.69;;;15.87;59.96
51083;BME280;37131;42.694;23.350;2023-05-01T08:31:29;95612.75;;;15.69;57.50
51083;BME280;37131;42.694;23.350;2023-05-01T08:33:54;95616.22;;;15.70;59.85
51083;BME280;37131;42.694;23.350;2023-05-01T08:36:20;95609.69;;;16.00;59.51
51083;BME280;37131;42.694;23.350;2023-05-01T08:38:45;95607.41;;;16.46;59.91
51083;BME280;37131;42.694;23.350;2023-05-01T08:41:14;95609.03;;;16.84;59.98
51083;BME280;37131;42.694;23.350;2023-05-01T08:43:40;95615.38;;;16.56;56.24
51083;BME280;37131;42.694;23.350;2023-05-01T08:46:05;95598.44;;;16.79;57.61
51083;BME280;37131;42.694;23.350;2023-05-01T08:48:33;95606.97;;;16.92;56.02
51083;BME280;37131;42.694;23.350;2023-05-01T08:50:59;95602.03;;;17.06;56.36
51083;BME280;37131;42.694;23.350;2023-05-01T08:53:26;95605.63;;;17.42;53.31
51083;BME280;37131;42.694;23.350;2023-05-01T08:55:53;95605.59;;;17.32;49.77
51083;BME280;37131;42.694;23.350;2023-05-01T08:58:20;95605.41;;;16.96;49.05
51083;BME280;37131;42.694;23.350;2023-05-01T09:00:48;95594.66;;;17.03;48.42
51083;BME280;37131;42.694;23.350;2023-05-01T09:03:13;95594.00;;;17.43;48.83
51083;BME280;37131;42.694;23.350;2023-05-01T09:05:39;95596.81;;;17.21;49.47
51083;BME280;37131;42.694;23.350;2023-05-01T09:08:04;95594.09;;;17.74;50.79
51083;BME280;37131;42.694;23.350;2023-05-01T09:10:29;95590.66;;;17.63;47.63
51083;BME280;37131;42.694;23.350;2023-05-01T09:12:59;95594.59;;;17.56;48.82
51083;BME280;37131;42.694;23.350;2023-05-01T09:15:25;95593.38;;;18.10;47.97
51083;BME280;37131;42.694;23.350;2023-05-01T09:17:51;95594.19;;;18.26;48.29
51083;BME280;37131;42.694;23.350;2023-05-01T09:20:17;95592.06;;;18.28;47.67
51083;BME280;37131;42.694;23.350;2023-05-01T09:22:43;95594.44;;;18.65;48.46
51083;BME280;37131;42.694;23.350;2023-05-01T09:25:08;95596.53;;;18.68;48.67
51083;BME280;37131;42.694;23.350;2023-05-01T09:27:35;95600.75;;;18.90;49.21
51083;BME280;37131;42.694;23.350;2023-05-01T09:30:00;95591.50;;;18.72;47.25
51083;BME280;37131;42.694;23.350;2023-05-01T09:32:26;95597.63;;;18.41;48.12
51083;BME280;37131;42.694;23.350;2023-05-01T09:34:53;95592.84;;;18.64;47.49
51083;BME280;37131;42.694;23.350;2023-05-01T09:37:28;95590.75;;;18.40;49.05
51083;BME280;37131;42.694;23.350;2023-05-01T09:42:49;95586.53;;;18.45;48.26
51083;BME280;37131;42.694;23.350;2023-05-01T09:45:15;95591.56;;;18.51;47.62
51083;BME280;37131;42.694;23.350;2023-05-01T09:47:41;95582.53;;;18.63;47.49
51083;BME280;37131;42.694;23.350;2023-05-01T09:50:07;95589.38;;;18.84;48.23
51083;BME280;37131;42.694;23.350;2023-05-01T09:52:33;95580.72;;;18.63;49.03
51083;BME280;37131;42.694;23.350;2023-05-01T09:55:17;95583.63;;;18.56;47.15
51083;BME280;37131;42.694;23.350;2023-05-01T09:57:43;95579.38;;;18.66;47.11
51083;BME280;37131;42.694;23.350;2023-05-01T10:00:09;95577.53;;;18.61;46.77
51083;BME280;37131;42.694;23.350;2023-05-01T10:02:35;95575.63;;;18.92;47.45
51083;BME280;37131;42.694;23.350;2023-05-01T10:05:01;95573.25;;;18.91;45.26
51083;BME280;37131;42.694;23.350;2023-05-01T10:07:27;95565.56;;;19.05;47.81
51083;BME280;37131;42.694;23.350;2023-05-01T10:09:53;95570.06;;;19.04;47.95
51083;BME280;37131;42.694;23.350;2023-05-01T10:12:23;95566.69;;;19.49;48.17
51083;BME280;37131;42.694;23.350;2023-05-01T10:14:52;95560.75;;;19.72;44.62
51083;BME280;37131;42.694;23.350;2023-05-01T10:17:18;95575.13;;;18.96;46.38
51083;BME280;37131;42.694;23.350;2023-05-01T10:19:44;95559.03;;;18.87;46.97
51083;BME280;37131;42.694;23.350;2023-05-01T10:22:09;95566.66;;;18.93;47.72
51083;BME280;37131;42.694;23.350;2023-05-01T10:24:35;95568.06;;;18.39;47.34
51083;BME280;37131;42.694;23.350;2023-05-01T10:27:00;95556.63;;;18.85;47.27
51083;BME280;37131;42.694;23.350;2023-05-01T10:29:29;95551.97;;;19.37;45.64
51083;BME280;37131;42.694;23.350;2023-05-01T10:31:55;95554.63;;;19.32;44.62
51083;BME280;37131;42.694;23.350;2023-05-01T10:34:21;95560.59;;;18.93;44.85
51083;BME280;37131;42.694;23.350;2023-05-01T10:36:51;95549.53;;;19.46;45.45
51083;BME280;37131;42.694;23.350;2023-05-01T10:39:29;95563.53;;;19.46;44.60
51083;BME280;37131;42.694;23.350;2023-05-01T10:42:05;95571.09;;;19.14;44.17
51083;BME280;37131;42.694;23.350;2023-05-01T10:44:32;95526.78;;;18.80;43.98
51083;BME280;37131;42.694;23.350;2023-05-01T10:46:58;95555.97;;;19.24;44.29
51083;BME280;37131;42.694;23.350;2023-05-01T10:49:24;95552.34;;;19.65;44.84
51083;BME280;37131;42.694;23.350;2023-05-01T10:52:10;95555.81;;;18.95;43.52
51083;BME280;37131;42.694;23.350;2023-05-01T10:54:35;95551.00;;;19.18;44.34
51083;BME280;37131;42.694;23.350;2023-05-01T10:57:01;95558.47;;;18.95;43.77
51083;BME280;37131;42.694;23.350;2023-05-01T10:59:27;95552.72;;;18.57;43.34
51083;BME280;37131;42.694;23.350;2023-05-01T11:01:52;95566.19;;;18.55;44.19
51083;BME280;37131;42.694;23.350;2023-05-01T11:07:12;95554.31;;;18.58;45.00
51083;BME280;37131;42.694;23.350;2023-05-01T11:12:07;95564.88;;;18.53;44.16
51083;BME280;37131;42.694;23.350;2023-05-01T11:20:00;95548.03;;;19.30;43.42
51083;BME280;37131;42.694;23.350;2023-05-01T11:22:25;95543.38;;;19.61;42.83
51083;BME280;37131;42.694;23.350;2023-05-01T11:24:50;95540.50;;;19.97;40.26
51083;BME280;37131;42.694;23.350;2023-05-01T11:27:15;95542.03;;;20.03;41.22
51083;BME280;37131;42.694;23.350;2023-05-01T11:29:42;95547.72;;;20.50;42.24
51083;BME280;37131;42.694;23.350;2023-05-01T11:32:08;95545.47;;;20.92;37.95
51083;BME280;37131;42.694;23.350;2023-05-01T11:34:34;95547.13;;;20.88;37.37
51083;BME280;37131;42.694;23.350;2023-05-01T11:37:01;95546.03;;;20.89;37.17
51083;BME280;37131;42.694;23.350;2023-05-01T11:39:27;95545.22;;;20.64;37.45
51083;BME280;37131;42.694;23.350;2023-05-01T11:42:04;95548.00;;;21.26;36.66
51083;BME280;37131;42.694;23.350;2023-05-01T11:44:30;95549.28;;;19.92;38.74
51083;BME280;37131;42.694;23.350;2023-05-01T11:46:55;95539.31;;;19.79;38.74
51083;BME280;37131;42.694;23.350;2023-05-01T11:49:25;95544.09;;;19.72;38.70
51083;BME280;37131;42.694;23.350;2023-05-01T11:51:55;95540.06;;;19.35;38.68
51083;BME280;37131;42.694;23.350;2023-05-01T11:54:21;95540.75;;;19.56;39.06
51083;BME280;37131;42.694;23.350;2023-05-01T11:56:46;95540.44;;;19.62;39.47
51083;BME280;37131;42.694;23.350;2023-05-01T11:59:13;95543.00;;;19.33;40.47
51083;BME280;37131;42.694;23.350;2023-05-01T12:01:40;95542.84;;;19.59;40.33
51083;BME280;37131;42.694;23.350;2023-05-01T12:04:08;95537.28;;;20.00;39.26
51083;BME280;37131;42.694;23.350;2023-05-01T12:09:05;95542.78;;;20.43;39.38
51083;BME280;37131;42.694;23.350;2023-05-01T12:11:31;95546.16;;;20.20;38.44
51083;BME280;37131;42.694;23.350;2023-05-01T12:13:56;95550.28;;;20.31;37.90
51083;BME280;37131;42.694;23.350;2023-05-01T12:16:22;95553.25;;;20.24;38.67
51083;BME280;37131;42.694;23.350;2023-05-01T12:18:49;95561.13;;;20.35;38.68
51083;BME280;37131;42.694;23.350;2023-05-01T12:21:14;95554.81;;;20.89;37.63
51083;BME280;37131;42.694;23.350;2023-05-01T12:23:41;95551.41;;;21.08;36.60
51083;BME280;37131;42.694;23.350;2023-05-01T12:26:16;95548.38;;;21.38;36.33
51083;BME280;37131;42.694;23.350;2023-05-01T12:28:54;95552.16;;;21.32;38.33
51083;BME280;37131;42.694;23.350;2023-05-01T12:31:20;95553.88;;;21.23;38.56
51083;BME280;37131;42.694;23.350;2023-05-01T12:33:52;95556.69;;;21.32;40.33
51083;BME280;37131;42.694;23.350;2023-05-01T12:36:17;95556.47;;;20.80;39.97
51083;BME280;37131;42.694;23.350;2023-05-01T12:38:52;95549.28;;;21.29;38.53
51083;BME280;37131;42.694;23.350;2023-05-01T12:41:19;95553.91;;;21.61;39.27
51083;BME280;37131;42.694;23.350;2023-05-01T12:43:45;95544.41;;;21.79;38.85
51083;BME280;37131;42.694;23.350;2023-05-01T12:46:12;95548.31;;;21.82;38.98
51083;BME280;37131;42.694;23.350;2023-05-01T12:48:38;95548.38;;;20.95;39.19
51083;BME280;37131;42.694;23.350;2023-05-01T12:51:04;95551.16;;;21.47;38.92
51083;BME280;37131;42.694;23.350;2023-05-01T12:53:30;95545.63;;;21.68;36.74
51083;BME280;37131;42.694;23.350;2023-05-01T12:55:56;95547.28;;;22.16;37.94
51083;BME280;37131;42.694;23.350;2023-05-01T12:58:22;95550.41;;;21.85;38.70
51083;BME280;37131;42.694;23.350;2023-05-01T13:00:48;95538.06;;;21.94;38.62
51083;BME280;37131;42.694;23.350;2023-05-01T13:03:16;95541.81;;;21.74;37.25
51083;BME280;37131;42.694;23.350;2023-05-01T13:10:55;95554.56;;;21.10;38.89
51083;BME280;37131;42.694;23.350;2023-05-01T13:13:39;95565.38;;;21.13;39.80
51083;BME280;37131;42.694;23.350;2023-05-01T13:16:09;95570.47;;;21.10;37.91
51083;BME280;37131;42.694;23.350;2023-05-01T13:18:51;95565.38;;;21.13;38.05
51083;BME280;37131;42.694;23.350;2023-05-01T13:21:18;95566.72;;;21.11;38.22
51083;BME280;37131;42.694;23.350;2023-05-01T13:23:57;95565.25;;;21.24;37.85
51083;BME280;37131;42.694;23.350;2023-05-01T13:26:26;95570.47;;;21.10;38.54